AirNav   Free Bose QuietComfort 20
 
 1435 users online  

PN79 Passavant Hospital Heliport
Pittsburgh, Pennsylvania, USA

GOING TO PITTSBURGH?


FAA INFORMATION EFFECTIVE 05 DECEMBER 2019

Location

FAA Identifier: PN79
Lat/Long: 40-34-24.1400N 080-00-42.8100W
40-34.402333N 080-00.713500W
40.5733722,-80.0118917
(estimated)
Elevation: 1330 ft. / 405 m (estimated)
Variation: 07W (1985)
From city: 11 miles NE of PITTSBURGH, PA
Time zone: UTC -5 (UTC -4 during Daylight Saving Time)
Zip code: 15333

Heliport Operations

Heliport use: Private use, MEDICAL USE.
Activation date: 01/1975
Control tower: no
ARTCC: CLEVELAND CENTER
FSS: ALTOONA FLIGHT SERVICE STATION
Attendance: CONTINUOUS
Wind indicator: yes
Segmented circle: no
Lights: SS-SR

Heliport Communications

WX AWOS-A at 42PN (7 nm S): PHONE 412-442-2213
WX ASOS at PIT (11 nm SW): PHONE 412-472-0145
WX AWOS-3PT at BTP (13 nm N): 121.450 (724-586-6434)
WX ASOS at AGC (14 nm S): PHONE 412-466-8968
WX AWOS-3PT at PJC (15 nm NW): 118.45 (724-452-5304)

Nearby radio navigation aids

VOR radial/distance  VOR name  Freq  Var
EWCr157/17.6ELLWOOD CITY VOR/DME115.8008W
AGCr013/17.7ALLEGHENY VOR/DME110.0009W
HLGr061/31.6WHEELING VOR/DME112.2007W

 
NDB name  Hdg/Dist  Freq  Var  ID
CASTLE155/32.627209WUCP ..- -.-. .--.

Heliport Services

Airframe service: NONE
Powerplant service: NONE

Runway Information

Helipad H1

Dimensions: 45 x 45 ft. / 14 x 14 m
Surface: concrete
Runway edge lights: PERI
Latitude: 40-34.402333N
Longitude: 080-00.713500W
Elevation: 1330.0 ft.
Traffic pattern: leftleft

Heliport Ownership and Management from official FAA records

Ownership: Privately-owned
Manager: WALTER O GOEHRING
9100 BABCOCK BLVD
PITTSBURGH, PA 15237
Phone 412-367-6700

Additional Remarks

FOR CD CTC CLEVELAND ARTCC AT 440-774-0490.

Instrument Procedures

There are no published instrument procedures at PN79.

Some nearby airports with instrument procedures:

KPIT - Pittsburgh International Airport (11 nm SW)
KBTP - Pittsburgh/Butler Regional Airport (13 nm N)
KAGC - Allegheny County Airport (14 nm S)
KPJC - Zelienople Municipal Airport (15 nm NW)
G05 - Finleyville Airpark (20 nm S)
 
Loc | Ops | Rwys | IFR | FBO | Links
Com | Nav | Svcs | Stats | Notes
Area around PN79 (Passavant Hospital Heliport)
 
Road maps at: MapQuest Bing Google
 
Aerial photo
No photo
 
Sectional chart

 
Airport distance calculator
Flying to Passavant Hospital Heliport? Find the distance to fly.

From to PN79

Sunrise and sunset
Times for 05-Dec-2019
 Local
(UTC-5)
 Zulu
(UTC)
Morning civil twilight06:5911:59
Sunrise07:2912:29
Sunset16:5221:52
Evening civil twilight17:2322:23

Current date and time
Zulu (UTC)  05-Dec-2019 17:52:34
Local (UTC-5)  05-Dec-2019 12:52:34
 
METAR
KBTP 
12nm N 
051707Z AUTO 26009G21KT 10SM BKN031 OVC043 01/M04 A2999 RMK AO2 FZRANO
KPIT 
12nm W 
051651Z 28013KT 10SM OVC039 02/M05 A3000 RMK AO2 SLP176 T00221050
KAGC 
14nm S 
051653Z 28010G21KT 10SM OVC040 02/M06 A2999 RMK AO2 SLP171 T00221056
KPJC 
15nm NW 
051735Z AUTO 26010G16KT 10SM SCT036 OVC044 02/M03 A3001 RMK AO2
KBVI 
21nm NW 
051736Z AUTO 28010G17KT 240V300 10SM OVC034 02/M04 A3001 RMK AO2 T00231041
KP53 
23nm S 
051656Z AUTO 23003KT M03/M07 A2997 RMK AO1 SLP158 T10281067
TAF
KPIT 
12nm W 
051501Z 0515/0618 28010G18KT P6SM OVC045 FM052200 28009KT P6SM BKN120 FM060900 21006KT P6SM OVC080 WS020/25035KT FM061500 25005KT P6SM OVC035
KAGC 
14nm S 
051130Z 0512/0612 29011G21KT P6SM OVC035 FM051800 28010G18KT P6SM BKN040 FM052200 27008KT P6SM BKN120 FM060900 20006KT P6SM BKN080 WS020/25035KT
NOTAMs
Click for the latest NOTAMs
NOTAMs are issued by the DoD/FAA and will open in a separate window not controlled by AirNav.

 

 
 

Would you like to see your business listed on this page?

 If your business provides an interesting product or service to pilots, flight crews, aircraft, or users of the Passavant Hospital Heliport, you should consider listing it here.  To start the listing process, click on the button below
 
Add a business
 

Other Pages about Passavant Hospital Heliport

Update a link
 
Copyright © AirNav, LLC. All rights reserved. Privacy Policy  Contact